Time;durP1;ratioP1;P1;durP2;ratioP2;P2;SDS_P1;SDS_P2;PMS_P1;PMS_P2;Temp;Humidity;BMP_temperature;BMP_pressure;BME280_temperature;BME280_humidity;BME280_pressure;Samples;Min_cycle;Max_cycle;Signal;HPM_P1;HPM_P2
2022/05/20 00:01:44;;;;;;;8.15;3.28;;;435.40;1638.40;;;;;;5012477;28;20068;-77
2022/05/20 00:04:09;;;;;;;8.00;3.70;;;435.30;1638.40;;;;;;5013911;28;20101;-78
2022/05/20 00:06:35;;;;;;;7.22;3.40;;;435.30;1638.40;;;;;;5014000;28;20026;-78
2022/05/20 00:09:02;;;;;;;11.90;3.97;;;435.20;1638.40;;;;;;4996149;28;20471;-78
2022/05/20 00:11:28;;;;;;;11.50;3.05;;;410.50;1664.00;;;;;;4995935;28;20034;-78
2022/05/20 00:13:54;;;;;;;11.10;4.00;;;410.30;1689.60;;;;;;4996212;28;20014;-78
2022/05/20 00:16:19;;;;;;;10.85;3.70;;;410.40;1689.60;;;;;;4995954;28;20129;-78
2022/05/20 00:18:46;;;;;;;6.72;3.63;;;410.40;1664.00;;;;;;4995968;28;20105;-78
2022/05/20 00:21:12;;;;;;;7.55;3.05;;;410.30;1664.00;;;;;;5013578;28;20486;-77
2022/05/20 00:23:38;;;;;;;8.00;3.95;;;410.30;1689.60;;;;;;4995814;28;20087;-78
2022/05/20 00:26:04;;;;;;;11.98;4.10;;;410.30;1664.00;;;;;;5011003;28;20390;-77
2022/05/20 00:28:30;;;;;;;8.57;4.22;;;410.20;1664.00;;;;;;4995842;28;20021;-78
2022/05/20 00:31:00;;;;;;;9.77;4.05;;;410.20;1664.00;;;;;;4996012;28;20029;-78
2022/05/20 00:33:27;;;;;;;8.57;3.42;;;410.20;1638.40;;;;;;5010948;28;20079;-77
2022/05/20 00:35:54;;;;;;;8.43;3.75;;;410.00;1664.00;;;;;;4995744;28;20052;-77
2022/05/20 00:38:21;;;;;;;8.48;4.60;;;409.70;1715.20;;;;;;4994837;28;20103;-77
2022/05/20 00:40:52;;;;;;;13.23;4.75;;;409.70;1766.40;;;;;;5013065;28;20101;-77
2022/05/20 00:43:24;;;;;;;10.38;4.32;;;409.80;1740.80;;;;;;5013397;28;20054;-77
2022/05/20 00:45:51;;;;;;;14.82;6.18;;;410.00;1715.20;;;;;;5011253;28;20474;-78
2022/05/20 00:48:17;;;;;;;9.93;4.57;;;409.80;1689.60;;;;;;5013230;28;20098;-77
2022/05/20 00:50:49;;;;;;;17.73;5.97;;;409.70;1766.40;;;;;;4995610;28;20104;-78
2022/05/20 00:53:19;;;;;;;12.65;5.90;;;409.80;1715.20;;;;;;4995339;28;20052;-77
2022/05/20 00:55:46;;;;;;;14.65;6.18;;;409.90;1715.20;;;;;;4992778;28;20034;-76
2022/05/20 00:58:23;;;;;;;11.02;5.78;;;410.00;1689.60;;;;;;4995255;28;20018;-77
2022/05/20 01:00:53;;;;;;;14.10;6.20;;;410.00;1689.60;;;;;;5010929;28;20014;-76
2022/05/20 01:03:24;;;;;;;13.57;5.80;;;410.00;1664.00;;;;;;4995037;28;20021;-77
2022/05/20 01:05:51;;;;;;;12.88;6.38;;;410.30;1689.60;;;;;;5010663;28;20018;-76
2022/05/20 01:08:26;;;;;;;10.88;5.60;;;410.30;1689.60;;;;;;5012791;28;20026;-76
2022/05/20 01:10:53;;;;;;;9.90;5.90;;;410.30;1689.60;;;;;;5010882;28;20447;-76
2022/05/20 01:13:20;;;;;;;20.67;5.97;;;410.20;1689.60;;;;;;5012744;28;20278;-77
2022/05/20 01:15:46;;;;;;;11.55;5.05;;;410.30;1689.60;;;;;;4989589;28;20520;-76
2022/05/20 01:18:14;;;;;;;11.40;5.13;;;410.20;1715.20;;;;;;5012657;28;20026;-76
2022/05/20 01:20:44;;;;;;;12.18;5.47;;;410.20;1715.20;;;;;;5012738;28;20029;-76
2022/05/20 01:23:11;;;;;;;12.85;6.05;;;410.20;1715.20;;;;;;5010136;28;20042;-77
2022/05/20 01:25:41;;;;;;;10.07;5.07;;;384.70;1715.20;;;;;;4994802;28;20025;-77
2022/05/20 01:28:08;;;;;;;11.77;6.07;;;409.90;1766.40;;;;;;4994888;28;20045;-76
2022/05/20 01:30:34;;;;;;;17.17;7.22;;;409.70;1843.20;;;;;;5012613;28;20512;-76
2022/05/20 01:33:05;;;;;;;11.05;5.50;;;409.70;1843.20;;;;;;4994610;28;20049;-77
2022/05/20 01:35:46;;;;;;;12.55;5.82;;;409.70;1843.20;;;;;;5010395;28;20500;-76
2022/05/20 01:38:13;;;;;;;8.02;4.93;;;409.70;1868.80;;;;;;5010462;28;20029;-77
2022/05/20 01:40:56;;;;;;;10.18;5.90;;;384.90;1868.80;;;;;;4994713;28;20083;-76
2022/05/20 01:43:43;;;;;;;14.00;5.78;;;384.70;1894.40;;;;;;5011770;28;20037;-76
2022/05/20 01:46:14;;;;;;;15.02;6.00;;;384.80;1868.80;;;;;;4992542;28;20037;-77
2022/05/20 01:49:17;;;;;;;13.73;6.30;;;384.90;1868.80;;;;;;5012166;28;20028;-76
2022/05/20 01:52:03;;;;;;;17.35;6.50;;;384.70;1868.80;;;;;;4993716;28;20109;-76
2022/05/20 01:54:40;;;;;;;17.52;6.63;;;384.40;1920.00;;;;;;5009704;28;20022;-77
2022/05/20 01:57:15;;;;;;;13.43;6.68;;;384.30;1945.60;;;;;;4994249;28;20037;-77
2022/05/20 01:59:46;;;;;;;14.77;6.50;;;384.40;1920.00;;;;;;4994445;28;20069;-77
2022/05/20 02:02:25;;;;;;;11.85;6.28;;;384.50;1920.00;;;;;;5009866;28;20152;-76
2022/05/20 02:05:34;;;;;;;16.23;6.30;;;384.60;1920.00;;;;;;4992145;28;20140;-76
2022/05/20 02:08:05;;;;;;;18.65;6.63;;;384.40;1945.60;;;;;;4932302;29;20519;-76
2022/05/20 02:10:41;;;;;;;11.98;6.32;;;384.20;2022.40;;;;;;4932475;29;20027;-76
2022/05/20 02:13:10;;;;;;;13.10;6.90;;;384.00;2048.00;;;;;;4932412;29;20036;-76
2022/05/20 02:15:47;;;;;;;10.27;6.30;;;384.10;2048.00;;;;;;4916280;29;20047;-76
2022/05/20 02:18:26;;;;;;;13.27;6.38;;;384.30;2022.40;;;;;;4932205;29;20440;-78
2022/05/20 02:20:57;;;;;;;15.68;7.40;;;384.20;1996.80;;;;;;4913883;29;20036;-76
2022/05/20 02:23:28;;;;;;;17.30;8.35;;;384.10;1996.80;;;;;;4931750;29;20056;-76
2022/05/20 02:26:03;;;;;;;13.98;7.65;;;359.30;2022.40;;;;;;4932451;29;20036;-75
2022/05/20 02:28:38;;;;;;;15.80;6.80;;;359.30;2048.00;;;;;;4932116;29;20067;-77
2022/05/20 02:31:08;;;;;;;15.93;7.87;;;359.20;2073.60;;;;;;4932017;29;20040;-76
2022/05/20 02:33:34;;;;;;;16.98;7.32;;;359.00;2124.80;;;;;;4916454;29;20024;-77
2022/05/20 02:36:08;;;;;;;20.38;8.20;;;359.00;2150.40;;;;;;4915500;29;20102;-76
2022/05/20 02:38:36;;;;;;;14.10;7.18;;;359.00;2150.40;;;;;;4932109;29;20043;-76
2022/05/20 02:41:02;;;;;;;17.65;7.45;;;359.00;2176.00;;;;;;4916127;29;20388;-76
2022/05/20 02:43:28;;;;;;;15.05;7.28;;;358.80;2227.20;;;;;;4933754;28;20035;-77
2022/05/20 02:45:54;;;;;;;11.77;6.65;;;358.70;2227.20;;;;;;4994280;28;20026;-78
2022/05/20 02:48:22;;;;;;;12.27;7.57;;;358.60;2252.80;;;;;;4993850;28;20493;-76
2022/05/20 02:50:49;;;;;;;16.65;8.00;;;358.40;2304.00;;;;;;5010271;28;20025;-77
2022/05/20 02:53:16;;;;;;;17.80;8.07;;;358.40;2278.40;;;;;;5011407;28;20398;-77
2022/05/20 02:55:42;;;;;;;12.98;7.13;;;333.70;2329.60;;;;;;5011862;28;20382;-76
2022/05/20 02:58:07;;;;;;;16.33;8.27;;;333.70;2329.60;;;;;;4992772;28;20026;-77
2022/05/20 03:06:01;;;;;;;16.95;6.93;;;333.40;2329.60;;;;;;5013882;28;20087;-77
2022/05/20 03:08:27;;;;;;;23.20;8.05;;;333.30;2329.60;;;;;;5015067;28;20529;-77
2022/05/20 03:10:53;;;;;;;17.77;7.97;;;333.40;2329.60;;;;;;5014847;28;20028;-78
2022/05/20 03:13:19;;;;;;;18.10;7.25;;;333.50;2329.60;;;;;;5013996;28;20030;-76
2022/05/20 03:15:45;;;;;;;22.98;7.55;;;333.60;2329.60;;;;;;5014744;28;20037;-77
2022/05/20 03:18:12;;;;;;;18.38;7.88;;;333.60;2329.60;;;;;;5012159;28;20386;-76
2022/05/20 03:20:41;;;;;;;13.43;6.50;;;333.60;2329.60;;;;;;4997358;28;20474;-77
2022/05/20 03:23:09;;;;;;;16.65;6.97;;;333.70;2329.60;;;;;;4996640;28;20478;-76
2022/05/20 03:25:36;;;;;;;12.65;7.25;;;333.70;2329.60;;;;;;5014692;28;20026;-77
2022/05/20 03:28:02;;;;;;;16.10;7.53;;;358.40;2329.60;;;;;;4996042;28;20030;-77
2022/05/20 03:30:28;;;;;;;21.38;7.15;;;358.50;2329.60;;;;;;4996982;28;20029;-76
2022/05/20 03:32:54;;;;;;;13.25;7.15;;;358.50;2329.60;;;;;;4996749;28;20021;-76
2022/05/20 03:35:19;;;;;;;21.08;7.72;;;358.60;2329.60;;;;;;4996527;28;20042;-76
2022/05/20 03:37:45;;;;;;;20.42;7.20;;;358.70;2329.60;;;;;;5014455;28;20038;-76
2022/05/20 03:40:11;;;;;;;15.75;7.05;;;358.80;2329.60;;;;;;4993846;28;20489;-76
2022/05/20 03:42:37;;;;;;;19.02;7.72;;;358.80;2329.60;;;;;;5014351;28;20018;-77
2022/05/20 03:45:04;;;;;;;18.00;8.18;;;358.60;2329.60;;;;;;5014191;28;20363;-76
2022/05/20 03:47:30;;;;;;;17.67;8.55;;;358.50;2329.60;;;;;;4996641;28;20040;-76
2022/05/20 03:49:55;;;;;;;18.42;7.38;;;333.70;2329.60;;;;;;5014027;28;20478;-76
2022/05/20 03:52:21;;;;;;;15.55;7.10;;;333.60;2329.60;;;;;;5014559;28;20025;-77
2022/05/20 03:54:47;;;;;;;15.27;6.50;;;333.50;2329.60;;;;;;4996246;28;20462;-77
2022/05/20 03:57:12;;;;;;;13.13;6.63;;;333.40;2329.60;;;;;;5014057;28;20034;-76
2022/05/20 03:59:39;;;;;;;13.88;7.30;;;333.50;2329.60;;;;;;4996320;28;20375;-77
2022/05/20 04:02:07;;;;;;;14.90;6.68;;;333.50;2329.60;;;;;;5014168;28;20018;-76
2022/05/20 04:04:37;;;;;;;17.20;7.78;;;333.50;2329.60;;;;;;5011671;28;20371;-76
2022/05/20 04:07:10;;;;;;;14.38;7.25;;;333.50;2329.60;;;;;;5013690;28;20022;-77
2022/05/20 04:09:36;;;;;;;15.40;7.57;;;333.50;2329.60;;;;;;4996131;28;20133;-76
2022/05/20 04:12:05;;;;;;;14.15;7.85;;;333.70;2329.60;;;;;;5013422;28;20572;-76
2022/05/20 04:14:32;;;;;;;13.85;7.30;;;333.70;2329.60;;;;;;4996355;28;20113;-76
2022/05/20 04:16:57;;;;;;;12.18;6.68;;;358.50;2329.60;;;;;;5013607;28;20080;-76
2022/05/20 04:19:25;;;;;;;9.95;6.75;;;358.60;2329.60;;;;;;4995973;28;20022;-77
2022/05/20 04:21:53;;;;;;;16.50;7.35;;;358.70;2329.60;;;;;;4995813;28;20030;-76
2022/05/20 04:24:20;;;;;;;19.98;10.15;;;358.70;2329.60;;;;;;4995215;28;20046;-77
2022/05/20 04:26:46;;;;;;;19.85;9.27;;;358.80;2329.60;;;;;;5013902;28;20032;-77
2022/05/20 04:29:12;;;;;;;17.58;9.43;;;358.90;2329.60;;;;;;4995835;28;20018;-76
2022/05/20 04:31:46;;;;;;;20.75;8.52;;;359.00;2329.60;;;;;;5013705;28;20076;-76
2022/05/20 04:34:12;;;;;;;14.50;8.07;;;359.10;2329.60;;;;;;4995782;28;20100;-77
2022/05/20 04:36:38;;;;;;;11.43;5.85;;;359.20;2329.60;;;;;;4995406;28;20125;-76
2022/05/20 04:39:05;;;;;;;14.38;6.00;;;384.00;2329.60;;;;;;5013279;28;20022;-76
2022/05/20 04:47:02;;;;;;;13.32;5.80;;;384.30;2252.80;;;;;;5011520;28;20036;-76
2022/05/20 04:49:29;;;;;;;14.93;6.57;;;384.40;2252.80;;;;;;4995298;28;20026;-77
2022/05/20 04:51:55;;;;;;;19.58;7.10;;;384.30;2252.80;;;;;;4993140;28;20034;-76
2022/05/20 04:57:06;;;;;;;17.95;6.47;;;384.60;2227.20;;;;;;5011966;28;20049;-75
2022/05/20 04:59:39;;;;;;;11.30;6.45;;;384.70;2252.80;;;;;;4994413;28;20125;-77
2022/05/20 05:02:05;;;;;;;12.77;6.57;;;384.70;2201.60;;;;;;5012738;28;20429;-77
2022/05/20 05:04:31;;;;;;;11.32;5.63;;;384.70;2227.20;;;;;;4995661;28;20450;-77
2022/05/20 05:06:57;;;;;;;17.75;8.13;;;384.70;2227.20;;;;;;4995151;28;20033;-76
2022/05/20 05:09:23;;;;;;;14.77;6.05;;;409.60;2252.80;;;;;;5013084;28;20014;-79
2022/05/20 05:11:49;;;;;;;16.17;6.70;;;409.70;2227.20;;;;;;4995194;28;20029;-78
2022/05/20 05:14:16;;;;;;;22.52;6.43;;;409.70;2201.60;;;;;;4992721;28;20097;-78
2022/05/20 05:16:43;;;;;;;14.15;6.60;;;409.80;2201.60;;;;;;4994926;28;20504;-77
2022/05/20 05:19:09;;;;;;;13.10;6.63;;;409.80;2201.60;;;;;;4994113;28;20072;-74
2022/05/20 05:21:35;;;;;;;13.40;6.85;;;410.00;2201.60;;;;;;4995134;28;20486;-76
2022/05/20 05:24:01;;;;;;;13.68;7.18;;;410.00;2201.60;;;;;;5012414;28;20104;-77
2022/05/20 05:26:28;;;;;;;28.48;7.28;;;410.20;2176.00;;;;;;5012922;28;20080;-76
2022/05/20 05:28:55;;;;;;;17.95;7.03;;;410.30;2176.00;;;;;;5012770;28;20471;-75
2022/05/20 05:31:20;;;;;;;19.13;7.45;;;410.50;2176.00;;;;;;5012824;28;20053;-75
2022/05/20 05:33:46;;;;;;;15.45;7.60;;;410.50;2201.60;;;;;;5012587;28;20466;-74
2022/05/20 05:36:12;;;;;;;15.13;6.68;;;435.20;2176.00;;;;;;4994959;28;20042;-75
2022/05/20 05:38:38;;;;;;;19.10;7.07;;;435.30;2201.60;;;;;;5012497;28;20022;-75
2022/05/20 05:41:04;;;;;;;13.07;5.70;;;435.50;2124.80;;;;;;4995147;28;20032;-75
2022/05/20 05:43:30;;;;;;;16.38;6.68;;;435.60;2048.00;;;;;;5012381;28;20025;-74
2022/05/20 05:45:55;;;;;;;14.45;6.47;;;435.80;1996.80;;;;;;5012736;28;20034;-75
2022/05/20 05:48:21;;;;;;;17.05;8.23;;;435.90;1996.80;;;;;;5012350;28;20377;-75
2022/05/20 05:50:47;;;;;;;10.52;6.38;;;435.90;1996.80;;;;;;5012262;28;20013;-75
2022/05/20 05:53:19;;;;;;;18.02;7.93;;;436.00;2022.40;;;;;;4994605;28;20130;-74
2022/05/20 05:55:47;;;;;;;14.95;6.72;;;436.10;2022.40;;;;;;5011578;28;20088;-74
2022/05/20 05:58:13;;;;;;;22.15;6.93;;;460.90;1996.80;;;;;;4992110;28;20117;-75
2022/05/20 06:00:40;;;;;;;15.18;7.85;;;460.90;2022.40;;;;;;5011967;28;20022;-76
2022/05/20 06:03:06;;;;;;;15.90;6.72;;;461.00;2022.40;;;;;;5012027;28;20639;-74
2022/05/20 06:05:32;;;;;;;12.18;6.47;;;461.10;1971.20;;;;;;5012210;28;20029;-72
2022/05/20 06:07:59;;;;;;;15.20;6.75;;;461.20;1945.60;;;;;;5012067;28;20453;-75
2022/05/20 06:10:26;;;;;;;10.38;6.88;;;461.30;1996.80;;;;;;5011924;28;20084;-75
2022/05/20 06:12:52;;;;;;;14.23;6.47;;;461.40;1971.20;;;;;;5009305;28;20044;-74
2022/05/20 06:15:22;;;;;;;14.65;5.88;;;461.50;1971.20;;;;;;5012010;28;20546;-74
2022/05/20 06:17:49;;;;;;;13.23;5.75;;;461.60;1920.00;;;;;;5011683;28;20026;-74
2022/05/20 06:20:15;;;;;;;8.70;5.75;;;461.70;1894.40;;;;;;5012509;28;20386;-77
2022/05/20 06:22:41;;;;;;;12.70;5.63;;;486.50;1868.80;;;;;;5011381;28;20046;-76
2022/05/20 06:25:09;;;;;;;11.80;5.30;;;486.50;1920.00;;;;;;5012434;28;20026;-74
2022/05/20 06:27:38;;;;;;;11.80;5.55;;;486.70;1843.20;;;;;;5012301;28;20025;-74
2022/05/20 06:30:06;;;;;;;10.48;5.35;;;486.80;1843.20;;;;;;5012397;28;20470;-74
2022/05/20 06:32:33;;;;;;;38.88;14.82;;;486.80;1817.60;;;;;;5011302;28;20022;-75
2022/05/20 06:40:34;;;;;;;13.75;5.78;;;487.10;1766.40;;;;;;5014655;28;20033;-77
2022/05/20 06:43:00;;;;;;;12.27;5.05;;;487.30;1740.80;;;;;;4997944;28;20022;-76
2022/05/20 06:45:29;;;;;;;7.50;4.95;;;512.00;1689.60;;;;;;5015658;28;20025;-79
2022/05/20 06:47:55;;;;;;;9.35;5.30;;;512.00;1689.60;;;;;;5015505;28;20032;-80
2022/05/20 06:50:20;;;;;;;11.25;4.97;;;512.10;1715.20;;;;;;5016226;28;20026;-78
2022/05/20 06:52:46;;;;;;;13.55;5.35;;;512.30;1689.60;;;;;;5016163;28;20045;-82
2022/05/20 06:55:12;;;;;;;12.45;5.60;;;512.40;1638.40;;;;;;5016217;28;20041;-84
2022/05/20 06:57:39;;;;;;;8.90;5.05;;;512.50;1638.40;;;;;;4998292;28;20038;-80
2022/05/20 07:00:08;;;;;;;11.20;5.22;;;512.70;1638.40;;;;;;4997966;28;20022;-78
2022/05/20 07:02:33;;;;;;;10.35;5.18;;;512.90;1587.20;;;;;;5015803;28;20033;-77
2022/05/20 07:05:03;;;;;;;10.68;5.20;;;537.70;1561.60;;;;;;4997979;28;20018;-77
2022/05/20 07:07:29;;;;;;;9.70;4.80;;;537.90;1587.20;;;;;;4998390;28;20030;-82
2022/05/20 07:09:54;;;;;;;12.80;5.30;;;538.00;1536.00;;;;;;5015526;28;20026;-79
2022/05/20 07:12:20;;;;;;;12.45;5.68;;;538.10;1510.40;;;;;;5015760;28;20080;-77
2022/05/20 07:14:46;;;;;;;13.43;6.75;;;538.30;1510.40;;;;;;5015642;28;20025;-78
2022/05/20 07:17:20;;;;;;;10.48;6.35;;;538.50;1510.40;;;;;;5015632;28;20485;-79
2022/05/20 07:19:46;;;;;;;9.73;5.55;;;563.20;1510.40;;;;;;4997768;28;20041;-76
2022/05/20 07:22:12;;;;;;;11.63;5.65;;;563.20;1459.20;;;;;;5015294;28;20317;-81
2022/05/20 07:24:39;;;;;;;10.52;5.00;;;563.30;1433.60;;;;;;4997600;28;20045;-79
2022/05/20 07:27:05;;;;;;;13.10;5.38;;;563.50;1433.60;;;;;;5015461;28;20068;-77
2022/05/20 07:29:30;;;;;;;19.27;5.68;;;563.70;1459.20;;;;;;5015509;28;20037;-82
2022/05/20 07:31:56;;;;;;;11.13;5.10;;;563.80;1459.20;;;;;;4997812;28;20038;-81
2022/05/20 07:34:22;;;;;;;11.95;5.32;;;564.00;1408.00;;;;;;5015060;28;20032;-77
2022/05/20 07:36:48;;;;;;;12.90;8.50;;;564.10;1356.80;;;;;;5014513;28;20444;-77
2022/05/20 07:39:13;;;;;;;10.50;5.18;;;564.10;1331.20;;;;;;4996967;28;20026;-77
2022/05/20 07:41:39;;;;;;;7.95;4.95;;;564.10;1331.20;;;;;;5014744;28;20071;-79
2022/05/20 07:44:05;;;;;;;9.00;4.93;;;588.80;1331.20;;;;;;4997019;28;20034;-78
2022/05/20 07:46:31;;;;;;;9.20;4.75;;;589.00;1356.80;;;;;;4996504;28;20227;-76
2022/05/20 07:48:57;;;;;;;12.65;5.15;;;589.10;1305.60;;;;;;5014431;28;20097;-79
2022/05/20 07:51:24;;;;;;;9.85;4.47;;;589.30;1331.20;;;;;;4997275;28;20485;-78
2022/05/20 07:53:57;;;;;;;6.63;3.50;;;589.30;1331.20;;;;;;5014962;28;20026;-78
2022/05/20 07:56:32;;;;;;;7.55;3.85;;;589.60;1280.00;;;;;;5014787;28;20065;-79
2022/05/20 07:59:12;;;;;;;10.70;4.47;;;589.60;1254.40;;;;;;5014674;28;20022;-78
2022/05/20 08:01:42;;;;;;;12.70;4.20;;;589.70;1254.40;;;;;;5014393;28;20022;-77
2022/05/20 08:07:04;;;;;;;12.48;3.95;;;614.50;1228.80;;;;;;5013592;28;20041;-74
2022/05/20 08:09:30;;;;;;;7.85;4.95;;;614.40;1228.80;;;;;;5013810;28;20532;-79
2022/05/20 08:11:57;;;;;;;7.47;5.22;;;589.70;1228.80;;;;;;5011450;28;20144;-77
2022/05/20 08:14:26;;;;;;;11.32;4.90;;;589.60;1228.80;;;;;;5013983;28;20477;-77
2022/05/20 08:16:52;;;;;;;9.60;5.53;;;589.50;1228.80;;;;;;4996671;28;20477;-78
2022/05/20 08:19:17;;;;;;;9.00;5.57;;;589.40;1228.80;;;;;;5013820;28;20025;-77
2022/05/20 08:21:43;;;;;;;10.48;5.22;;;589.40;1254.40;;;;;;5013520;28;20124;-78
2022/05/20 08:24:09;;;;;;;13.23;5.97;;;589.40;1280.00;;;;;;4996610;28;20064;-77
2022/05/20 08:26:35;;;;;;;13.52;6.88;;;589.60;1280.00;;;;;;5014380;28;20029;-80
2022/05/20 08:29:01;;;;;;;14.48;6.57;;;589.70;1280.00;;;;;;4996014;28;20492;-77
2022/05/20 08:31:27;;;;;;;10.57;5.60;;;614.40;1228.80;;;;;;5012628;28;20030;-77
2022/05/20 08:33:53;;;;;;;14.50;6.25;;;614.60;1254.40;;;;;;4996584;28;20040;-78
2022/05/20 08:36:19;;;;;;;13.88;5.95;;;614.80;1254.40;;;;;;5013893;28;20436;-78
2022/05/20 08:38:47;;;;;;;9.48;4.65;;;614.80;1203.20;;;;;;5014012;28;20034;-78
2022/05/20 08:41:22;;;;;;;13.02;5.68;;;614.90;1177.60;;;;;;4996497;28;20029;-77
2022/05/20 08:43:48;;;;;;;8.88;5.72;;;615.10;1177.60;;;;;;4996541;28;20022;-75
2022/05/20 08:46:17;;;;;;;9.20;5.75;;;615.10;1126.40;;;;;;5013506;28;20080;-77
2022/05/20 08:48:44;;;;;;;11.30;5.55;;;615.10;1126.40;;;;;;5014248;28;20026;-80
2022/05/20 08:51:10;;;;;;;9.50;4.40;;;615.10;1152.00;;;;;;4996164;28;20525;-79
2022/05/20 08:53:45;;;;;;;14.65;5.20;;;615.20;1152.00;;;;;;5013816;28;20018;-80
2022/05/20 08:56:17;;;;;;;15.63;5.63;;;615.30;1126.40;;;;;;4996143;28;20033;-80
2022/05/20 08:58:56;;;;;;;5.43;3.53;;;640.00;1126.40;;;;;;4995750;28;20501;-80
2022/05/20 09:01:31;;;;;;;8.23;3.40;;;640.10;1049.60;;;;;;4996491;28;20121;-76
2022/05/20 09:03:57;;;;;;;7.25;4.30;;;640.20;1024.00;;;;;;5013526;28;20029;-78
2022/05/20 09:06:25;;;;;;;9.45;4.60;;;640.40;1049.60;;;;;;5013264;28;20417;-76
2022/05/20 09:09:14;;;;;;;8.02;4.47;;;640.50;1075.20;;;;;;5013485;28;20030;-75
2022/05/20 09:11:41;;;;;;;7.85;3.72;;;640.60;1049.60;;;;;;5013436;28;20026;-76
2022/05/20 09:17:23;;;;;;;7.05;3.40;;;640.70;1049.60;;;;;;5012735;28;20040;-75
2022/05/20 09:20:06;;;;;;;17.58;4.03;;;640.90;1024.00;;;;;;4991008;28;20026;-74
2022/05/20 09:22:36;;;;;;;6.38;3.58;;;665.60;1024.00;;;;;;5011137;28;20052;-77
2022/05/20 09:25:15;;;;;;;5.65;3.33;;;665.70;1024.00;;;;;;5010460;28;20060;-76
2022/05/20 09:27:40;;;;;;;9.20;3.60;;;665.70;998.40;;;;;;5013172;28;20022;-74
2022/05/20 09:30:08;;;;;;;4.68;3.00;;;666.00;1024.00;;;;;;5012939;28;20030;-75
2022/05/20 09:33:01;;;;;;;5.30;2.45;;;666.10;947.20;;;;;;5013082;28;20022;-77
2022/05/20 09:35:34;;;;;;;3.97;2.25;;;666.20;896.00;;;;;;5013049;28;20022;-75
2022/05/20 09:38:10;;;;;;;4.45;2.80;;;666.40;870.40;;;;;;5012763;28;20033;-76
2022/05/20 09:40:41;;;;;;;7.68;2.88;;;666.50;896.00;;;;;;5013001;28;20406;-75
2022/05/20 09:43:28;;;;;;;5.35;2.60;;;666.50;870.40;;;;;;5012926;28;20485;-78
2022/05/20 09:45:57;;;;;;;4.68;2.90;;;691.20;844.80;;;;;;5012724;28;20021;-78
2022/05/20 09:48:35;;;;;;;6.45;2.75;;;691.30;819.20;;;;;;5013097;28;20109;-75
2022/05/20 09:51:48;;;;;;;5.22;2.40;;;691.50;844.80;;;;;;5012777;28;20033;-81
2022/05/20 09:54:40;;;;;;;3.97;2.65;;;691.70;844.80;;;;;;4933160;29;20068;-80
2022/05/20 09:57:27;;;;;;;4.40;2.70;;;691.90;819.20;;;;;;4932263;29;20047;-74
2022/05/20 10:00:11;;;;;;;7.38;2.63;;;692.00;793.60;;;;;;4932640;29;20075;-75
2022/05/20 10:03:03;;;;;;;5.20;2.78;;;692.10;793.60;;;;;;4932597;29;20051;-79
2022/05/20 10:05:56;;;;;;;6.13;3.13;;;716.90;870.40;;;;;;4932759;29;20034;-78
2022/05/20 10:08:34;;;;;;;5.10;2.70;;;717.10;819.20;;;;;;4930084;29;20027;-75
2022/05/20 10:11:08;;;;;;;9.63;2.80;;;717.00;793.60;;;;;;4934621;29;20071;-74
2022/05/20 10:13:53;;;;;;;6.65;2.75;;;717.30;793.60;;;;;;4937072;29;20045;-73
2022/05/20 10:16:47;;;;;;;5.60;2.73;;;717.20;819.20;;;;;;4917771;29;20056;-74
2022/05/20 10:19:31;;;;;;;4.93;3.03;;;717.30;793.60;;;;;;4917937;29;20302;-79
2022/05/20 10:22:05;;;;;;;9.95;2.25;;;717.50;793.60;;;;;;4915233;29;20070;-79
2022/05/20 10:24:49;;;;;;;4.03;2.28;;;717.60;768.00;;;;;;4883145;29;20049;-78
2022/05/20 10:27:40;;;;;;;7.07;2.65;;;717.60;768.00;;;;;;4899457;29;20041;-83
2022/05/20 10:33:04;;;;;;;6.18;2.67;;;;;;;;;;4984756;28;20122;-79
2022/05/20 10:35:59;;;;;;;7.40;2.83;;;742.90;768.00;;;;;;4997402;28;20018;-80
2022/05/20 10:38:25;;;;;;;4.95;2.40;;;742.90;819.20;;;;;;4980033;28;20027;-81
2022/05/20 10:40:59;;;;;;;10.32;3.47;;;742.90;793.60;;;;;;4996402;28;20041;-81
2022/05/20 10:50:04;;;;;;;4.55;3.13;;;743.10;819.20;;;;;;4993098;28;20029;-80
2022/05/20 10:52:47;;;;;;;6.63;2.78;;;743.20;793.60;;;;;;4995026;28;20541;-82
2022/05/20 10:55:16;;;;;;;4.68;2.90;;;768.00;819.20;;;;;;4978850;28;20076;-83
2022/05/20 10:58:05;;;;;;;4.28;2.90;;;768.10;793.60;;;;;;4979256;28;20030;-83
2022/05/20 11:00:52;;;;;;;4.78;3.03;;;768.00;793.60;;;;;;4917980;29;20060;-82
2022/05/20 11:03:39;;;;;;;6.22;2.50;;;768.00;768.00;;;;;;4901903;29;20128;-81
2022/05/20 11:06:07;;;;;;;7.53;3.08;;;743.30;793.60;;;;;;4917438;29;20040;-82
2022/05/20 11:08:33;;;;;;;8.48;3.30;;;743.30;793.60;;;;;;4918455;29;20130;-81
2022/05/20 11:11:06;;;;;;;4.18;2.45;;;743.30;793.60;;;;;;4917623;29;20449;-82
2022/05/20 11:13:50;;;;;;;4.57;2.60;;;768.00;768.00;;;;;;4917351;29;20059;-80
2022/05/20 11:16:40;;;;;;;6.43;3.38;;;768.00;793.60;;;;;;4916828;29;20047;-80
2022/05/20 11:19:29;;;;;;;4.47;2.78;;;743.30;768.00;;;;;;4917724;29;20144;-82
2022/05/20 11:22:07;;;;;;;9.18;3.35;;;768.10;793.60;;;;;;4902337;29;20509;-80
2022/05/20 11:24:50;;;;;;;8.45;2.63;;;768.10;793.60;;;;;;4920847;29;20060;-82
2022/05/20 11:27:30;;;;;;;8.40;2.78;;;768.20;793.60;;;;;;4921460;29;20056;-83
2022/05/20 11:30:16;;;;;;;13.98;3.25;;;768.40;793.60;;;;;;4920852;29;20377;-80
2022/05/20 11:32:57;;;;;;;4.45;2.65;;;768.60;819.20;;;;;;4919865;29;20126;-80
2022/05/20 11:35:50;;;;;;;8.82;2.78;;;768.60;793.60;;;;;;4919874;29;20123;-81
2022/05/20 11:38:25;;;;;;;8.60;2.70;;;768.70;742.40;;;;;;4982963;28;20042;-82
2022/05/20 11:41:13;;;;;;;4.63;2.63;;;768.50;768.00;;;;;;4997632;28;20033;-79
2022/05/20 11:44:00;;;;;;;6.88;2.78;;;768.40;768.00;;;;;;5014889;28;20109;-80
2022/05/20 11:46:44;;;;;;;5.80;2.90;;;768.60;793.60;;;;;;5015014;28;20029;-79
2022/05/20 11:49:31;;;;;;;4.82;2.53;;;768.40;793.60;;;;;;4997316;28;20033;-80
2022/05/20 11:52:11;;;;;;;9.43;2.90;;;768.60;768.00;;;;;;4996878;28;20076;-80
2022/05/20 11:54:49;;;;;;;4.00;2.40;;;768.80;768.00;;;;;;4996988;28;20050;-78
2022/05/20 11:57:20;;;;;;;10.30;3.28;;;768.80;768.00;;;;;;5014829;28;20038;-79
2022/05/20 12:00:02;;;;;;;7.03;2.60;;;768.60;793.60;;;;;;4997049;28;20390;-79
2022/05/20 12:02:31;;;;;;;8.70;2.60;;;768.60;768.00;;;;;;4997105;28;20026;-81
2022/05/20 12:05:00;;;;;;;4.38;2.50;;;768.80;742.40;;;;;;4997831;28;20112;-81
2022/05/20 12:07:26;;;;;;;6.32;3.28;;;793.70;716.80;;;;;;5014796;28;20488;-81
2022/05/20 12:09:54;;;;;;;10.15;2.90;;;793.90;768.00;;;;;;4997650;28;20022;-81
2022/05/20 12:12:31;;;;;;;8.50;2.85;;;794.10;742.40;;;;;;5015020;28;20026;-82
2022/05/20 12:15:12;;;;;;;4.60;2.72;;;794.00;716.80;;;;;;4997602;28;20473;-82
2022/05/20 12:17:42;;;;;;;5.50;2.88;;;794.10;716.80;;;;;;4997297;28;20044;-82
2022/05/20 12:25:50;;;;;;;5.40;2.80;;;794.30;665.60;;;;;;5015287;28;20466;-83
2022/05/20 12:28:22;;;;;;;4.53;2.88;;;794.40;640.00;;;;;;4997644;28;20029;-84
2022/05/20 12:31:12;;;;;;;3.38;2.03;;;819.20;614.40;;;;;;4997205;28;20022;-81
2022/05/20 12:34:05;;;;;;;4.30;2.50;;;794.50;588.80;;;;;;5015073;28;20032;-83
2022/05/20 12:36:35;;;;;;;4.28;2.50;;;794.30;563.20;;;;;;4997251;28;20037;-83
2022/05/20 12:39:07;;;;;;;8.27;2.78;;;794.00;640.00;;;;;;4996922;28;20492;-82
2022/05/20 12:41:38;;;;;;;4.35;2.35;;;794.00;665.60;;;;;;4997467;28;20026;-82
2022/05/20 12:44:25;;;;;;;6.93;2.13;;;794.00;614.40;;;;;;4996974;28;20033;-85
2022/05/20 12:47:12;;;;;;;6.03;2.10;;;794.10;614.40;;;;;;4987039;28;20038;-82
2022/05/20 12:49:47;;;;;;;8.35;2.53;;;794.30;588.80;;;;;;4996645;28;20168;-82
2022/05/20 12:52:20;;;;;;;6.78;2.55;;;794.10;640.00;;;;;;4996195;28;20033;-82
2022/05/20 12:54:52;;;;;;;3.67;2.15;;;794.10;640.00;;;;;;5014432;28;20032;-83
2022/05/20 12:57:33;;;;;;;7.43;2.30;;;794.20;614.40;;;;;;4997040;28;20034;-83
2022/05/20 13:00:06;;;;;;;5.93;1.90;;;794.50;640.00;;;;;;4995435;28;20030;-83
2022/05/20 13:02:38;;;;;;;3.47;2.25;;;794.10;640.00;;;;;;4996205;28;20079;-83
2022/05/20 13:05:06;;;;;;;3.60;2.17;;;794.30;640.00;;;;;;4995340;28;20037;-83
2022/05/20 13:07:37;;;;;;;3.33;1.95;;;794.10;614.40;;;;;;4996400;28;20117;-83
2022/05/20 13:10:22;;;;;;;8.40;2.90;;;794.00;640.00;;;;;;4995489;28;20034;-84
2022/05/20 13:12:49;;;;;;;4.13;2.33;;;794.40;640.00;;;;;;4995510;28;20014;-83
2022/05/20 13:15:19;;;;;;;7.22;2.00;;;794.50;588.80;;;;;;4996442;28;20121;-83
2022/05/20 13:17:51;;;;;;;4.90;2.40;;;794.50;588.80;;;;;;4996640;28;20500;-83